Time;durP1;ratioP1;P1;durP2;ratioP2;P2;SDS_P1;SDS_P2;PMS_P1;PMS_P2;Temp;Humidity;BMP_temperature;BMP_pressure;BME280_temperature;BME280_humidity;BME280_pressure;Samples;Min_cycle;Max_cycle;Signal;HPM_P1;HPM_P2
2021/10/24 00:01:21;;;;;;;7.83;6.60;;;5.90;99.90;;;;;;4997354;28;20200;-79
2021/10/24 00:03:46;;;;;;;8.63;6.77;;;5.90;99.90;;;;;;4996928;28;20172;-80
2021/10/24 00:06:12;;;;;;;11.27;7.10;;;5.80;99.90;;;;;;4997287;28;20674;-78
2021/10/24 00:08:38;;;;;;;7.87;6.57;;;5.80;99.90;;;;;;4993069;28;20190;-79
2021/10/24 00:11:04;;;;;;;8.93;7.27;;;5.80;99.90;;;;;;4996714;28;20593;-79
2021/10/24 00:13:30;;;;;;;7.80;7.00;;;5.80;99.90;;;;;;4997217;28;20643;-79
2021/10/24 00:15:59;;;;;;;7.80;7.00;;;5.80;99.90;;;;;;4997039;28;20175;-79
2021/10/24 00:18:26;;;;;;;8.57;6.90;;;5.70;99.90;;;;;;4997017;28;20175;-79
2021/10/24 00:20:53;;;;;;;9.13;6.87;;;5.70;99.90;;;;;;4995036;28;20700;-79
2021/10/24 00:23:19;;;;;;;7.60;6.30;;;5.60;99.90;;;;;;4996407;28;20164;-79
2021/10/24 00:25:46;;;;;;;7.17;6.33;;;5.60;99.90;;;;;;4995963;28;20626;-79
2021/10/24 00:28:12;;;;;;;8.47;6.50;;;5.60;99.90;;;;;;4986929;28;20179;-79
2021/10/24 00:30:38;;;;;;;6.97;6.27;;;5.60;99.90;;;;;;4994545;28;20258;-79
2021/10/24 00:33:05;;;;;;;8.20;6.83;;;5.60;99.90;;;;;;4996166;28;20254;-79
2021/10/24 00:35:31;;;;;;;6.97;5.93;;;5.60;99.90;;;;;;4995841;28;20226;-78
2021/10/24 00:37:56;;;;;;;7.50;6.13;;;5.60;99.90;;;;;;4996010;28;20664;-79
2021/10/24 00:40:22;;;;;;;8.73;6.40;;;5.60;99.90;;;;;;4996001;28;20195;-79
2021/10/24 00:42:50;;;;;;;8.40;5.97;;;5.60;99.90;;;;;;4994980;28;20191;-78
2021/10/24 00:45:17;;;;;;;7.80;7.00;;;5.60;99.90;;;;;;4996263;28;20168;-78
2021/10/24 00:47:43;;;;;;;7.27;6.40;;;5.50;99.90;;;;;;4994799;28;20184;-79
2021/10/24 00:50:09;;;;;;;9.27;7.27;;;5.50;99.90;;;;;;5012194;28;20172;-79
2021/10/24 00:52:35;;;;;;;10.27;6.40;;;5.40;99.90;;;;;;4995306;28;20168;-79
2021/10/24 00:55:00;;;;;;;7.97;6.53;;;5.40;99.90;;;;;;4996498;28;20193;-78
2021/10/24 00:57:27;;;;;;;9.00;6.50;;;5.30;99.90;;;;;;4996172;28;20187;-79
2021/10/24 00:59:52;;;;;;;7.73;6.87;;;5.20;99.90;;;;;;4995938;28;20638;-79
2021/10/24 01:02:18;;;;;;;8.67;7.00;;;5.20;99.90;;;;;;4994694;28;20196;-79
2021/10/24 01:04:44;;;;;;;10.13;7.20;;;5.00;99.90;;;;;;4994367;28;20637;-79
2021/10/24 01:07:12;;;;;;;9.50;7.33;;;5.00;99.90;;;;;;4996236;28;20179;-79
2021/10/24 01:09:38;;;;;;;7.80;6.73;;;5.00;99.90;;;;;;4995902;28;20198;-79
2021/10/24 01:12:04;;;;;;;7.57;6.70;;;5.00;99.90;;;;;;4996194;28;20218;-79
2021/10/24 01:14:30;;;;;;;8.00;7.20;;;5.00;99.90;;;;;;4994268;28;20372;-79
2021/10/24 01:16:55;;;;;;;9.83;7.13;;;5.10;99.90;;;;;;4996111;28;20180;-79
2021/10/24 01:19:22;;;;;;;7.73;6.87;;;5.00;99.90;;;;;;4995560;28;20176;-79
2021/10/24 01:21:48;;;;;;;8.63;7.00;;;5.00;99.90;;;;;;4995962;28;20241;-79
2021/10/24 01:24:14;;;;;;;8.77;7.07;;;5.10;99.90;;;;;;4996018;28;20234;-79
2021/10/24 01:26:41;;;;;;;9.50;6.83;;;4.70;99.90;;;;;;4992448;28;20176;-79
2021/10/24 01:29:09;;;;;;;9.40;7.30;;;4.90;99.90;;;;;;4989354;28;20179;-79
2021/10/24 01:31:36;;;;;;;6.93;6.33;;;4.90;99.90;;;;;;4994493;28;20576;-78
2021/10/24 01:34:02;;;;;;;9.47;6.73;;;4.90;99.90;;;;;;4995407;28;20175;-79
2021/10/24 01:36:28;;;;;;;7.67;6.87;;;4.80;99.90;;;;;;4995295;28;20176;-79
2021/10/24 01:38:53;;;;;;;8.47;6.40;;;4.80;99.90;;;;;;4995740;28;20181;-79
2021/10/24 01:41:23;;;;;;;8.00;7.00;;;4.80;99.90;;;;;;4995538;28;20285;-79
2021/10/24 01:43:57;;;;;;;8.57;7.17;;;4.80;99.90;;;;;;4994342;28;20177;-79
2021/10/24 01:46:23;;;;;;;7.93;6.33;;;4.70;99.90;;;;;;4995557;28;20175;-79
2021/10/24 01:48:49;;;;;;;10.10;6.80;;;4.70;99.90;;;;;;4994545;28;20181;-79
2021/10/24 01:51:15;;;;;;;7.50;6.90;;;4.60;99.90;;;;;;4995388;28;20230;-79
2021/10/24 01:53:43;;;;;;;9.17;6.70;;;4.60;99.90;;;;;;4990920;28;20175;-77
2021/10/24 01:56:09;;;;;;;7.37;6.37;;;4.50;99.90;;;;;;4987191;28;20172;-79
2021/10/24 01:58:35;;;;;;;7.70;6.73;;;4.60;99.90;;;;;;4997639;28;20823;-78
2021/10/24 02:01:01;;;;;;;7.37;6.57;;;4.60;99.90;;;;;;4997612;28;20201;-79
2021/10/24 02:03:27;;;;;;;7.87;6.47;;;4.60;99.90;;;;;;4997204;28;20181;-79
2021/10/24 02:05:54;;;;;;;7.27;6.27;;;4.60;99.90;;;;;;4999121;28;20171;-79
2021/10/24 02:08:20;;;;;;;9.30;6.30;;;4.50;99.90;;;;;;4998631;28;20905;-79
2021/10/24 02:10:46;;;;;;;8.87;5.97;;;4.60;99.90;;;;;;4996430;28;20212;-78
2021/10/24 02:13:12;;;;;;;11.57;6.40;;;4.40;99.90;;;;;;4998510;28;20209;-79
2021/10/24 02:15:38;;;;;;;7.50;6.50;;;4.40;99.90;;;;;;4999069;28;20178;-79
2021/10/24 02:18:05;;;;;;;7.10;6.40;;;4.40;99.90;;;;;;4996188;28;20543;-79
2021/10/24 02:20:33;;;;;;;9.10;6.83;;;4.40;99.90;;;;;;4997777;28;20258;-79
2021/10/24 02:23:00;;;;;;;10.93;7.13;;;4.50;99.90;;;;;;4999265;28;20228;-79
2021/10/24 02:25:26;;;;;;;16.13;9.70;;;4.50;99.90;;;;;;4999108;28;20175;-79
2021/10/24 02:27:52;;;;;;;9.03;7.27;;;4.40;99.90;;;;;;4996162;28;20553;-79
2021/10/24 02:30:18;;;;;;;7.13;6.30;;;4.40;99.90;;;;;;4998087;28;20260;-79
2021/10/24 02:32:44;;;;;;;9.97;7.93;;;4.30;99.90;;;;;;4997239;28;20187;-79
2021/10/24 02:35:12;;;;;;;9.73;7.50;;;4.30;99.90;;;;;;4994171;28;20195;-79
2021/10/24 02:37:38;;;;;;;10.40;7.90;;;4.30;99.90;;;;;;4999042;28;20171;-79
2021/10/24 02:40:05;;;;;;;9.50;7.23;;;4.40;99.90;;;;;;4998215;28;20237;-79
2021/10/24 02:42:30;;;;;;;6.47;5.73;;;4.40;99.90;;;;;;5000824;28;20210;-79
2021/10/24 02:44:56;;;;;;;8.00;6.00;;;4.80;99.90;;;;;;4996919;28;20225;-79
2021/10/24 02:47:21;;;;;;;9.97;6.87;;;4.40;99.90;;;;;;4998466;28;20224;-79
2021/10/24 02:49:48;;;;;;;8.13;6.60;;;4.40;99.90;;;;;;4996833;28;20181;-79
2021/10/24 02:52:14;;;;;;;7.97;6.53;;;4.50;99.90;;;;;;4998467;28;20205;-79
2021/10/24 02:54:40;;;;;;;8.30;6.83;;;4.20;99.90;;;;;;4998701;28;20181;-79
2021/10/24 02:57:06;;;;;;;8.83;6.77;;;4.20;99.90;;;;;;4997314;28;20186;-79
2021/10/24 02:59:32;;;;;;;8.97;5.97;;;4.10;99.90;;;;;;5001262;28;20183;-79
2021/10/24 03:01:59;;;;;;;7.57;6.33;;;4.20;99.90;;;;;;5001652;28;20220;-79
2021/10/24 03:04:24;;;;;;;7.27;6.40;;;4.00;99.90;;;;;;5002510;28;20174;-80
2021/10/24 03:06:50;;;;;;;8.43;6.23;;;3.90;99.90;;;;;;4999858;28;20178;-79
2021/10/24 03:09:16;;;;;;;7.30;6.17;;;3.90;99.90;;;;;;4998697;28;20221;-79
2021/10/24 03:11:42;;;;;;;6.97;6.27;;;3.90;99.90;;;;;;4996455;28;20224;-80
2021/10/24 03:14:08;;;;;;;8.57;6.50;;;3.80;99.90;;;;;;4983846;28;20178;-79
2021/10/24 03:16:34;;;;;;;7.57;6.80;;;3.70;99.90;;;;;;4980906;28;20187;-79
2021/10/24 03:19:00;;;;;;;10.63;6.67;;;3.70;99.90;;;;;;4980723;28;20186;-77
2021/10/24 03:21:26;;;;;;;7.13;6.43;;;3.80;99.90;;;;;;4979211;28;20206;-80
2021/10/24 03:23:52;;;;;;;7.00;6.30;;;3.70;99.90;;;;;;4977545;28;20554;-79
2021/10/24 03:26:18;;;;;;;8.20;6.80;;;3.70;99.90;;;;;;4978677;28;20177;-79
2021/10/24 03:28:44;;;;;;;8.83;6.90;;;3.70;99.90;;;;;;4984562;28;20170;-78
2021/10/24 03:31:10;;;;;;;7.17;6.47;;;3.70;99.90;;;;;;4979161;28;20720;-79
2021/10/24 03:33:35;;;;;;;10.07;6.87;;;3.70;99.90;;;;;;4977126;28;20660;-79
2021/10/24 03:36:01;;;;;;;8.63;7.20;;;3.70;99.90;;;;;;4978553;28;20220;-79
2021/10/24 03:38:27;;;;;;;10.10;7.70;;;3.80;99.90;;;;;;4978874;28;20181;-78
2021/10/24 03:40:53;;;;;;;8.53;7.53;;;3.90;99.90;;;;;;4976956;28;20210;-78
2021/10/24 03:43:18;;;;;;;9.37;6.53;;;3.90;99.90;;;;;;4979261;28;20174;-78
2021/10/24 03:45:44;;;;;;;10.03;7.63;;;3.90;99.90;;;;;;4978617;28;20183;-79
2021/10/24 03:48:10;;;;;;;9.90;7.70;;;4.10;99.90;;;;;;4977629;28;20178;-79
2021/10/24 03:50:35;;;;;;;12.20;7.80;;;4.10;99.90;;;;;;4976928;28;20199;-78
2021/10/24 03:53:01;;;;;;;9.53;7.57;;;4.10;99.90;;;;;;4976364;28;20187;-79
2021/10/24 03:55:27;;;;;;;8.23;7.33;;;4.10;99.90;;;;;;4975100;28;20183;-78
2021/10/24 03:57:53;;;;;;;11.33;7.73;;;4.10;99.90;;;;;;4984428;28;20678;-79
2021/10/24 04:00:19;;;;;;;9.10;8.20;;;4.10;99.90;;;;;;4993954;28;20182;-78
2021/10/24 04:02:50;;;;;;;8.80;7.83;;;4.20;99.90;;;;;;4981274;28;20220;-78
2021/10/24 04:05:15;;;;;;;10.90;7.80;;;4.20;99.90;;;;;;4984285;28;20256;-78
2021/10/24 04:07:41;;;;;;;12.03;7.70;;;4.20;99.90;;;;;;4992795;28;20219;-78
2021/10/24 04:10:07;;;;;;;9.03;8.13;;;4.20;99.90;;;;;;4993115;28;20176;-78
2021/10/24 04:12:33;;;;;;;8.90;7.93;;;4.20;99.90;;;;;;4996467;28;20220;-79
2021/10/24 04:14:58;;;;;;;10.40;7.63;;;4.20;99.90;;;;;;4996297;28;20205;-79
2021/10/24 04:17:24;;;;;;;12.30;8.13;;;4.20;99.90;;;;;;4994565;28;20206;-78
2021/10/24 04:19:50;;;;;;;9.00;8.10;;;4.20;99.90;;;;;;4996159;28;20178;-79
2021/10/24 04:22:15;;;;;;;9.47;7.47;;;4.20;99.90;;;;;;4996682;28;20198;-78
2021/10/24 04:24:41;;;;;;;9.93;8.50;;;4.30;99.90;;;;;;4995420;28;20163;-78
2021/10/24 04:27:06;;;;;;;11.50;7.93;;;4.20;99.90;;;;;;4996588;28;20189;-78
2021/10/24 04:29:32;;;;;;;8.50;7.43;;;4.20;99.90;;;;;;4996124;28;20177;-79
2021/10/24 04:31:58;;;;;;;10.00;8.23;;;4.20;99.90;;;;;;4996414;28;20193;-79
2021/10/24 04:34:23;;;;;;;11.53;7.97;;;4.20;99.90;;;;;;4995416;28;20178;-78
2021/10/24 04:36:49;;;;;;;10.40;8.40;;;4.10;99.90;;;;;;4997526;28;20174;-78
2021/10/24 04:39:15;;;;;;;8.67;7.83;;;4.10;99.90;;;;;;4996164;28;20182;-79
2021/10/24 04:41:41;;;;;;;8.73;7.37;;;4.20;99.90;;;;;;4991151;28;20295;-78
2021/10/24 04:44:07;;;;;;;8.27;7.30;;;4.10;99.90;;;;;;4986696;28;20168;-79
2021/10/24 04:46:33;;;;;;;9.23;8.33;;;4.10;99.90;;;;;;4993442;28;20170;-79
2021/10/24 04:48:58;;;;;;;8.47;7.50;;;4.00;99.90;;;;;;4995990;28;20168;-79
2021/10/24 04:51:24;;;;;;;8.07;7.20;;;4.00;99.90;;;;;;4996397;28;20213;-78
2021/10/24 04:53:49;;;;;;;11.30;7.90;;;3.90;99.90;;;;;;4995555;28;20598;-79
2021/10/24 04:56:15;;;;;;;9.47;6.97;;;3.90;99.90;;;;;;4997698;28;20184;-79
2021/10/24 04:58:41;;;;;;;11.13;7.23;;;3.80;99.90;;;;;;4987052;28;20265;-77
2021/10/24 05:01:08;;;;;;;9.67;7.30;;;3.60;99.90;;;;;;4985522;28;20213;-78
2021/10/24 05:03:33;;;;;;;9.27;7.40;;;3.70;99.90;;;;;;4977099;28;20244;-78
2021/10/24 05:05:59;;;;;;;7.83;7.03;;;3.60;99.90;;;;;;4975567;28;20640;-78
2021/10/24 05:08:25;;;;;;;8.17;7.37;;;3.50;99.90;;;;;;4978026;28;20174;-79
2021/10/24 05:10:50;;;;;;;9.27;7.27;;;3.50;99.90;;;;;;4978157;28;20586;-79
2021/10/24 05:13:16;;;;;;;8.07;7.27;;;3.50;99.90;;;;;;4976843;28;20225;-78
2021/10/24 05:15:42;;;;;;;8.73;7.10;;;3.40;99.90;;;;;;4976874;28;20225;-79
2021/10/24 05:18:08;;;;;;;10.53;7.47;;;3.30;99.90;;;;;;4973991;28;20177;-78
2021/10/24 05:20:33;;;;;;;8.47;7.67;;;3.20;99.90;;;;;;4977742;28;20280;-78
2021/10/24 05:22:59;;;;;;;8.03;7.23;;;3.20;99.90;;;;;;4976757;28;20281;-79
2021/10/24 05:25:25;;;;;;;11.57;7.93;;;3.20;99.90;;;;;;4976589;28;20506;-78
2021/10/24 05:27:54;;;;;;;8.37;7.53;;;3.20;99.90;;;;;;4976725;28;20182;-79
2021/10/24 05:30:24;;;;;;;9.57;7.30;;;3.20;99.90;;;;;;4974793;28;20164;-78
2021/10/24 05:32:49;;;;;;;7.93;7.13;;;3.10;99.90;;;;;;4975807;28;20747;-78
2021/10/24 05:35:15;;;;;;;8.03;7.23;;;3.10;99.90;;;;;;4974614;28;20204;-78
2021/10/24 05:37:41;;;;;;;12.17;8.20;;;3.00;99.90;;;;;;4979241;28;20251;-78
2021/10/24 05:40:07;;;;;;;7.83;6.97;;;3.00;99.90;;;;;;4976818;28;20219;-78
2021/10/24 05:42:33;;;;;;;10.30;8.63;;;3.00;99.90;;;;;;4991342;28;20195;-79
2021/10/24 05:44:59;;;;;;;14.80;9.00;;;2.90;99.90;;;;;;4994231;28;20176;-79
2021/10/24 05:47:25;;;;;;;12.83;9.00;;;2.80;99.90;;;;;;4995187;28;20172;-78
2021/10/24 05:49:51;;;;;;;9.40;8.50;;;2.80;99.90;;;;;;4995272;28;20168;-78
2021/10/24 05:52:17;;;;;;;8.73;7.70;;;2.80;99.90;;;;;;4995376;28;20195;-78
2021/10/24 05:54:43;;;;;;;8.80;7.40;;;2.90;99.90;;;;;;4994885;28;20172;-79
2021/10/24 05:57:09;;;;;;;13.00;7.80;;;2.80;99.90;;;;;;4994865;28;20185;-78
2021/10/24 05:59:35;;;;;;;11.07;7.97;;;2.80;99.90;;;;;;4995246;28;20176;-78
2021/10/24 06:02:01;;;;;;;9.07;7.97;;;2.70;99.90;;;;;;4995270;28;20270;-78
2021/10/24 06:04:26;;;;;;;9.93;8.67;;;2.70;99.90;;;;;;4981731;28;20177;-78
2021/10/24 06:06:52;;;;;;;11.80;9.20;;;2.70;99.90;;;;;;4987739;28;20173;-79
2021/10/24 06:09:27;;;;;;;9.50;8.50;;;2.80;99.90;;;;;;4978257;28;20180;-78
2021/10/24 06:11:59;;;;;;;9.03;8.13;;;2.80;99.90;;;;;;4975451;28;20250;-78
2021/10/24 06:14:25;;;;;;;9.77;8.73;;;2.90;99.90;;;;;;4979116;28;20205;-78
2021/10/24 06:16:51;;;;;;;11.50;8.13;;;2.90;99.90;;;;;;4976133;28;20543;-79
2021/10/24 06:19:17;;;;;;;9.83;8.30;;;3.00;99.90;;;;;;4977210;28;20548;-78
2021/10/24 06:21:43;;;;;;;9.43;8.17;;;3.00;99.90;;;;;;4976257;28;20204;-78
2021/10/24 06:24:09;;;;;;;9.23;8.30;;;3.00;99.90;;;;;;4975322;28;20180;-78
2021/10/24 06:26:34;;;;;;;13.27;9.30;;;3.00;99.90;;;;;;4975214;28;20251;-78
2021/10/24 06:29:00;;;;;;;13.20;9.27;;;3.10;99.90;;;;;;4975156;28;20188;-78
2021/10/24 06:31:26;;;;;;;13.80;9.33;;;3.10;99.90;;;;;;4975930;28;20200;-79
2021/10/24 06:33:51;;;;;;;12.37;9.57;;;3.20;99.90;;;;;;4989180;28;20173;-79
2021/10/24 06:36:17;;;;;;;12.30;9.70;;;3.20;99.90;;;;;;4977215;28;20718;-78
2021/10/24 06:38:43;;;;;;;12.30;9.60;;;3.30;99.90;;;;;;4973686;28;20177;-79
2021/10/24 06:41:09;;;;;;;15.70;10.07;;;3.40;99.90;;;;;;4976101;28;20201;-79
2021/10/24 06:43:35;;;;;;;12.00;9.77;;;3.60;99.90;;;;;;4979202;28;20199;-78
2021/10/24 06:46:01;;;;;;;11.33;10.10;;;3.50;99.90;;;;;;4982872;28;20267;-78
2021/10/24 06:48:27;;;;;;;15.20;10.27;;;3.60;99.90;;;;;;4981528;28;20199;-78
2021/10/24 06:50:52;;;;;;;12.43;9.73;;;3.70;99.90;;;;;;4979873;28;20194;-78
2021/10/24 06:53:18;;;;;;;11.37;9.80;;;3.70;99.90;;;;;;4979595;28;20194;-78
2021/10/24 06:55:44;;;;;;;10.63;9.53;;;3.80;99.90;;;;;;4993398;28;20185;-78
2021/10/24 06:58:10;;;;;;;14.70;10.53;;;3.70;99.90;;;;;;4977167;28;20174;-78
2021/10/24 07:00:36;;;;;;;13.57;10.63;;;3.70;99.90;;;;;;4983579;28;20228;-78
2021/10/24 07:03:01;;;;;;;14.53;10.70;;;3.80;99.90;;;;;;4993938;28;20212;-78
2021/10/24 07:05:27;;;;;;;12.80;10.70;;;3.80;99.90;;;;;;4997052;28;20178;-78
2021/10/24 07:07:53;;;;;;;15.67;10.27;;;3.80;99.90;;;;;;4982459;28;20186;-78
2021/10/24 07:10:20;;;;;;;14.27;10.50;;;3.80;99.90;;;;;;4978320;28;20179;-78
2021/10/24 07:12:51;;;;;;;11.20;9.97;;;3.80;99.90;;;;;;4990707;28;20657;-78
2021/10/24 07:15:18;;;;;;;11.67;10.47;;;3.80;99.90;;;;;;4987340;28;20181;-78
2021/10/24 07:17:43;;;;;;;14.20;10.33;;;3.80;99.90;;;;;;4986438;28;20184;-78
2021/10/24 07:20:09;;;;;;;13.80;10.13;;;3.90;99.90;;;;;;4984741;28;20198;-78
2021/10/24 07:22:35;;;;;;;14.43;11.80;;;3.90;99.90;;;;;;4991513;28;20200;-78
2021/10/24 07:25:02;;;;;;;13.83;10.77;;;4.00;99.90;;;;;;4992818;28;20194;-79
2021/10/24 07:27:28;;;;;;;11.97;10.37;;;4.10;99.90;;;;;;4993467;28;20182;-79
2021/10/24 07:29:53;;;;;;;12.77;10.27;;;4.10;99.90;;;;;;4988746;28;20656;-78
2021/10/24 07:32:19;;;;;;;13.53;11.30;;;4.10;99.90;;;;;;4983714;28;20210;-79
2021/10/24 07:34:45;;;;;;;16.60;11.67;;;4.30;99.90;;;;;;4980409;28;20186;-79
2021/10/24 07:37:10;;;;;;;14.97;11.33;;;4.30;99.90;;;;;;4987563;28;20248;-79
2021/10/24 07:39:36;;;;;;;15.57;10.57;;;4.40;99.90;;;;;;4991204;28;20276;-79
2021/10/24 07:42:02;;;;;;;12.77;10.57;;;4.30;99.90;;;;;;4995440;28;20300;-79
2021/10/24 07:44:28;;;;;;;17.37;10.93;;;4.40;99.90;;;;;;4986566;28;20320;-79
2021/10/24 07:46:56;;;;;;;12.97;10.80;;;4.30;99.90;;;;;;4982577;28;20228;-79
2021/10/24 07:49:22;;;;;;;14.97;10.97;;;4.40;99.90;;;;;;4987572;28;20277;-79
2021/10/24 07:51:48;;;;;;;28.00;18.30;;;4.50;99.90;;;;;;4984149;28;20207;-79
2021/10/24 07:54:17;;;;;;;32.17;19.10;;;4.60;99.90;;;;;;4988693;28;20190;-79
2021/10/24 07:56:43;;;;;;;30.67;19.13;;;4.60;99.90;;;;;;4988078;28;20183;-79
2021/10/24 07:59:09;;;;;;;28.17;17.20;;;4.60;99.90;;;;;;4989419;28;20269;-79
2021/10/24 08:01:39;;;;;;;36.00;21.30;;;4.80;99.90;;;;;;4992967;28;20292;-79
2021/10/24 08:04:08;;;;;;;35.27;21.03;;;4.50;99.90;;;;;;4995616;28;20210;-79
2021/10/24 08:06:38;;;;;;;37.17;23.30;;;4.60;99.90;;;;;;4991744;28;20633;-79
2021/10/24 08:09:06;;;;;;;35.90;21.60;;;4.70;99.90;;;;;;4993064;28;20184;-79
2021/10/24 08:11:36;;;;;;;38.27;22.80;;;4.70;99.90;;;;;;4990161;28;20272;-78
2021/10/24 08:14:03;;;;;;;39.17;22.17;;;4.80;99.90;;;;;;4992270;28;20218;-78
2021/10/24 08:16:28;;;;;;;34.60;22.53;;;4.80;99.90;;;;;;4992682;28;20185;-78
2021/10/24 08:18:54;;;;;;;33.83;21.97;;;4.90;99.90;;;;;;4993147;28;20203;-79
2021/10/24 08:21:20;;;;;;;36.10;22.33;;;4.90;99.90;;;;;;4990898;28;20214;-79
2021/10/24 08:23:47;;;;;;;36.90;21.13;;;5.00;99.90;;;;;;4985456;28;20254;-79
2021/10/24 08:26:13;;;;;;;33.80;23.43;;;5.10;99.90;;;;;;4988629;28;20180;-77
2021/10/24 08:28:39;;;;;;;35.17;22.47;;;5.10;99.90;;;;;;4980567;28;20659;-78
2021/10/24 08:31:04;;;;;;;40.73;23.23;;;5.30;99.90;;;;;;4993322;28;20210;-78
2021/10/24 08:33:30;;;;;;;33.00;22.23;;;5.30;99.90;;;;;;4991604;28;20175;-78
2021/10/24 08:35:59;;;;;;;32.90;22.30;;;5.30;99.90;;;;;;4991970;28;20533;-78
2021/10/24 08:38:26;;;;;;;31.77;22.73;;;5.40;99.90;;;;;;4988456;28;20226;-78
2021/10/24 08:40:52;;;;;;;34.37;21.83;;;5.40;99.90;;;;;;4988699;28;20267;-80
2021/10/24 08:43:19;;;;;;;35.83;22.23;;;5.40;99.90;;;;;;4990049;28;20176;-77
2021/10/24 08:45:48;;;;;;;36.53;22.60;;;5.40;99.90;;;;;;4987014;28;20186;-79
2021/10/24 08:48:18;;;;;;;37.63;23.90;;;5.30;99.90;;;;;;4993058;28;20179;-79
2021/10/24 08:50:45;;;;;;;34.87;21.83;;;5.30;99.90;;;;;;4983071;28;20280;-79
2021/10/24 08:53:13;;;;;;;39.10;22.50;;;5.30;99.90;;;;;;4983781;28;20189;-78
2021/10/24 08:55:41;;;;;;;37.47;22.90;;;5.30;99.90;;;;;;4977906;28;20192;-78
2021/10/24 08:58:08;;;;;;;41.53;23.43;;;5.30;99.90;;;;;;4979868;28;21020;-78
2021/10/24 09:00:34;;;;;;;38.87;23.00;;;5.30;99.90;;;;;;4987110;28;20207;-79
2021/10/24 09:03:03;;;;;;;39.27;23.83;;;5.30;99.90;;;;;;4987856;28;20243;-79
2021/10/24 09:05:48;;;;;;;37.33;23.33;;;5.30;99.90;;;;;;4984232;28;20178;-78
2021/10/24 09:08:19;;;;;;;34.23;22.70;;;5.30;99.90;;;;;;4988414;28;20179;-77
2021/10/24 09:10:49;;;;;;;38.43;23.60;;;5.40;99.90;;;;;;4991404;28;20253;-77
2021/10/24 09:13:36;;;;;;;29.07;20.87;;;5.50;99.90;;;;;;4989191;28;20187;-76
2021/10/24 09:16:02;;;;;;;28.23;20.13;;;5.60;99.90;;;;;;4989083;28;20190;-77
2021/10/24 09:18:37;;;;;;;30.47;20.30;;;5.60;99.90;;;;;;4987580;28;20242;-77
2021/10/24 09:21:15;;;;;;;32.87;21.23;;;5.70;99.90;;;;;;4986492;28;20203;-77
2021/10/24 09:23:47;;;;;;;28.87;20.67;;;5.70;99.90;;;;;;4982624;28;20218;-77
2021/10/24 09:26:30;;;;;;;27.83;20.70;;;5.70;99.90;;;;;;4989989;28;20234;-78
2021/10/24 09:29:04;;;;;;;26.23;20.17;;;5.90;99.90;;;;;;4982655;28;20184;-77
2021/10/24 09:31:49;;;;;;;26.73;18.23;;;5.90;99.90;;;;;;4990480;28;20301;-77
2021/10/24 09:34:21;;;;;;;26.73;18.97;;;5.90;99.90;;;;;;4990515;28;20207;-77
2021/10/24 09:37:08;;;;;;;27.87;19.40;;;5.80;99.90;;;;;;4983457;28;20227;-77
2021/10/24 09:39:37;;;;;;;33.33;20.60;;;5.70;99.90;;;;;;4998039;28;20226;-77
2021/10/24 09:42:22;;;;;;;33.00;20.67;;;5.80;99.90;;;;;;4989826;28;20266;-77
2021/10/24 09:45:09;;;;;;;30.27;22.13;;;5.70;99.90;;;;;;4987896;28;20175;-77
2021/10/24 09:47:37;;;;;;;45.67;29.67;;;5.60;99.90;;;;;;4987831;28;20182;-76
2021/10/24 09:50:08;;;;;;;31.57;22.50;;;5.60;99.90;;;;;;4983609;28;20172;-77
2021/10/24 09:52:35;;;;;;;28.53;20.43;;;5.80;99.90;;;;;;4986069;28;20180;-77
2021/10/24 09:55:03;;;;;;;28.63;21.47;;;5.80;99.90;;;;;;4989108;28;20267;-77
2021/10/24 09:57:30;;;;;;;27.17;20.37;;;5.90;99.90;;;;;;4987007;28;20323;-77
2021/10/24 09:59:56;;;;;;;27.13;20.33;;;5.90;99.90;;;;;;4990951;28;20642;-77
2021/10/24 10:02:22;;;;;;;25.87;20.10;;;6.00;99.90;;;;;;4986132;28;20218;-77
2021/10/24 10:04:48;;;;;;;28.23;20.50;;;6.10;99.90;;;;;;4984505;28;20207;-76
2021/10/24 10:07:14;;;;;;;27.97;20.17;;;6.10;99.90;;;;;;4990526;28;20187;-77
2021/10/24 10:09:44;;;;;;;26.63;19.90;;;6.10;99.90;;;;;;4986881;28;20707;-77
2021/10/24 10:12:13;;;;;;;26.90;19.60;;;6.20;99.90;;;;;;4987593;28;20239;-76
2021/10/24 10:14:41;;;;;;;29.33;20.67;;;6.10;99.90;;;;;;4988217;28;20191;-77
2021/10/24 10:17:19;;;;;;;27.20;20.67;;;6.10;99.90;;;;;;4993968;28;20239;-77
2021/10/24 10:19:47;;;;;;;27.53;20.33;;;6.00;99.90;;;;;;4991891;28;20179;-77
2021/10/24 10:22:21;;;;;;;28.53;21.50;;;6.00;99.90;;;;;;4986604;28;20356;-77
2021/10/24 10:24:59;;;;;;;28.57;20.87;;;6.00;99.90;;;;;;4994655;28;20230;-77
2021/10/24 10:27:27;;;;;;;32.07;21.67;;;6.00;99.90;;;;;;4987446;28;20669;-77
2021/10/24 10:30:14;;;;;;;30.30;20.13;;;6.00;99.90;;;;;;4984596;28;20180;-77
2021/10/24 10:32:43;;;;;;;28.80;20.60;;;6.00;99.90;;;;;;4996120;28;20230;-76
2021/10/24 10:35:23;;;;;;;27.93;19.97;;;6.00;99.90;;;;;;4992995;28;20255;-76
2021/10/24 10:37:51;;;;;;;26.60;19.50;;;6.10;99.90;;;;;;4989079;28;20192;-76
2021/10/24 10:40:26;;;;;;;31.13;21.03;;;6.10;99.90;;;;;;4992406;28;20199;-76
2021/10/24 10:42:55;;;;;;;26.17;19.83;;;6.20;99.90;;;;;;4993669;28;20202;-77
2021/10/24 10:45:26;;;;;;;25.83;20.17;;;6.20;99.90;;;;;;4994195;28;20172;-79
2021/10/24 10:48:01;;;;;;;24.47;18.47;;;6.40;99.90;;;;;;4996161;28;20174;-80
2021/10/24 10:50:29;;;;;;;25.43;18.43;;;6.60;99.90;;;;;;4987174;28;20203;-79
2021/10/24 10:53:00;;;;;;;22.10;17.57;;;6.90;99.90;;;;;;4999915;28;20184;-83
2021/10/24 10:55:29;;;;;;;22.90;18.60;;;7.10;99.90;;;;;;4999975;28;20218;-83
2021/10/24 10:58:14;;;;;;;23.73;18.90;;;7.20;99.90;;;;;;4998814;28;20183;-83
2021/10/24 11:00:40;;;;;;;22.33;17.70;;;7.30;99.90;;;;;;5001618;28;20245;-83
2021/10/24 11:03:06;;;;;;;22.63;18.07;;;7.30;99.90;;;;;;5001130;28;20199;-83
2021/10/24 11:05:36;;;;;;;23.50;18.77;;;7.30;99.90;;;;;;5001764;28;20176;-83
2021/10/24 11:08:02;;;;;;;21.97;18.23;;;7.40;99.90;;;;;;4999197;28;20183;-84
2021/10/24 11:10:47;;;;;;;21.97;17.73;;;7.40;99.90;;;;;;4998964;28;20300;-84
2021/10/24 11:13:31;;;;;;;22.93;17.53;;;7.50;99.90;;;;;;5001377;28;20176;-84
2021/10/24 11:16:31;;;;;;;25.03;17.53;;;7.60;99.90;;;;;;5001760;28;20248;-84
2021/10/24 11:18:58;;;;;;;22.07;16.93;;;7.60;99.90;;;;;;5003846;28;20172;-84
2021/10/24 11:21:30;;;;;;;22.27;17.47;;;7.70;99.90;;;;;;5010174;28;20256;-84
2021/10/24 11:23:57;;;;;;;19.80;16.60;;;7.80;99.90;;;;;;5001290;28;20182;-84
2021/10/24 11:26:22;;;;;;;21.60;16.80;;;7.90;99.90;;;;;;5003122;28;20176;-84
2021/10/24 11:28:48;;;;;;;20.33;16.53;;;7.90;99.90;;;;;;5000785;28;20185;-84
2021/10/24 11:31:19;;;;;;;17.53;15.73;;;8.10;99.90;;;;;;5001292;28;20682;-83
2021/10/24 11:33:46;;;;;;;22.30;16.60;;;8.10;99.90;;;;;;5001538;28;20237;-84
2021/10/24 11:36:18;;;;;;;19.70;16.40;;;8.10;99.90;;;;;;5002165;28;20177;-84
2021/10/24 11:38:44;;;;;;;19.70;16.30;;;8.10;99.90;;;;;;5000938;28;20178;-84
2021/10/24 11:41:23;;;;;;;23.63;17.63;;;8.10;99.90;;;;;;5001145;28;20569;-84
2021/10/24 11:44:03;;;;;;;20.57;17.23;;;8.00;99.90;;;;;;5001719;28;20243;-84
2021/10/24 11:46:29;;;;;;;21.03;17.43;;;8.00;99.90;;;;;;5001307;28;20178;-84
2021/10/24 11:49:01;;;;;;;19.83;17.23;;;8.00;99.90;;;;;;5000565;28;20544;-84
2021/10/24 11:51:28;;;;;;;25.17;17.50;;;8.00;99.90;;;;;;5001576;28;20683;-84
2021/10/24 11:53:54;;;;;;;23.13;17.63;;;8.00;99.90;;;;;;4999634;28;20273;-84
2021/10/24 11:59:13;;;;;;;21.87;17.20;;;8.10;99.90;;;;;;4998016;28;20187;-84
2021/10/24 12:01:40;;;;;;;21.17;16.50;;;8.30;99.90;;;;;;5001320;28;20615;-84
2021/10/24 12:04:07;;;;;;;23.57;17.03;;;8.30;99.90;;;;;;5001322;28;20169;-84
2021/10/24 12:07:02;;;;;;;20.03;16.13;;;8.40;99.90;;;;;;5001748;28;20172;-84
2021/10/24 12:09:39;;;;;;;28.00;18.07;;;8.60;99.90;;;;;;5000434;28;20171;-84
2021/10/24 12:12:23;;;;;;;23.60;16.60;;;8.80;99.90;;;;;;5001262;28;20287;-84
2021/10/24 12:14:58;;;;;;;18.87;15.30;;;8.90;99.90;;;;;;5001084;28;20174;-84
2021/10/24 12:17:27;;;;;;;22.10;16.27;;;9.00;99.90;;;;;;4999559;28;20597;-84
2021/10/24 12:20:25;;;;;;;23.23;16.13;;;9.10;99.90;;;;;;5002023;28;20658;-84
2021/10/24 12:22:56;;;;;;;21.00;16.23;;;9.20;99.90;;;;;;5001864;28;20194;-84
2021/10/24 12:25:48;;;;;;;20.37;15.60;;;9.20;99.90;;;;;;4999950;28;20209;-83
2021/10/24 12:28:23;;;;;;;19.90;15.03;;;9.30;99.90;;;;;;5000357;28;20194;-84
2021/10/24 12:30:58;;;;;;;18.93;15.03;;;9.40;99.90;;;;;;4999040;28;20590;-84
2021/10/24 12:33:29;;;;;;;20.53;15.27;;;9.40;99.90;;;;;;5000967;28;20700;-84
2021/10/24 12:35:59;;;;;;;17.53;13.73;;;9.50;99.90;;;;;;5001047;28;20183;-84
2021/10/24 12:38:45;;;;;;;18.30;13.67;;;9.50;99.90;;;;;;5000861;28;20200;-84
2021/10/24 12:41:12;;;;;;;15.87;14.20;;;9.50;99.90;;;;;;4998954;28;20229;-84
2021/10/24 12:43:51;;;;;;;15.27;13.77;;;9.60;99.90;;;;;;4999728;28;20176;-84
2021/10/24 12:46:46;;;;;;;15.37;13.77;;;9.80;99.90;;;;;;5000284;28;20175;-83
2021/10/24 12:49:15;;;;;;;15.80;11.87;;;9.80;99.90;;;;;;4992470;28;20282;-80
2021/10/24 12:51:45;;;;;;;15.70;13.23;;;9.90;99.90;;;;;;4997512;28;20565;-81
2021/10/24 12:54:12;;;;;;;14.07;12.77;;;9.90;99.90;;;;;;4999461;28;20237;-82